sensor_id;sensor_type;location;lat;lon;timestamp;P1;durP1;ratioP1;P2;durP2;ratioP2
18114;SDS011;9184;54.390;18.620;2022-08-01T00:00:04;8.57;;;6.20;;
18114;SDS011;9184;54.390;18.620;2022-08-01T00:00:35;13.02;;;6.40;;
18114;SDS011;9184;54.390;18.620;2022-08-01T00:01:05;8.27;;;5.95;;
18114;SDS011;9184;54.390;18.620;2022-08-01T00:01:37;12.05;;;6.60;;
18114;SDS011;9184;54.390;18.620;2022-08-01T00:02:07;9.30;;;5.97;;
18114;SDS011;9184;54.390;18.620;2022-08-01T00:02:38;12.48;;;5.88;;
18114;SDS011;9184;54.390;18.620;2022-08-01T00:03:09;8.15;;;6.07;;
18114;SDS011;9184;54.390;18.620;2022-08-01T00:03:40;7.82;;;6.03;;
18114;SDS011;9184;54.390;18.620;2022-08-01T00:04:10;8.10;;;6.25;;
18114;SDS011;9184;54.390;18.620;2022-08-01T00:04:41;8.07;;;5.20;;
18114;SDS011;9184;54.390;18.620;2022-08-01T00:05:12;11.45;;;6.18;;
18114;SDS011;9184;54.390;18.620;2022-08-01T00:05:42;11.00;;;5.63;;
18114;SDS011;9184;54.390;18.620;2022-08-01T00:06:14;7.45;;;5.70;;
18114;SDS011;9184;54.390;18.620;2022-08-01T00:06:47;7.45;;;5.63;;
18114;SDS011;9184;54.390;18.620;2022-08-01T00:07:17;7.50;;;5.35;;
18114;SDS011;9184;54.390;18.620;2022-08-01T00:07:48;8.60;;;5.50;;
18114;SDS011;9184;54.390;18.620;2022-08-01T00:08:19;7.53;;;5.45;;
18114;SDS011;9184;54.390;18.620;2022-08-01T00:08:49;8.13;;;5.47;;
18114;SDS011;9184;54.390;18.620;2022-08-01T00:09:20;9.73;;;5.90;;
18114;SDS011;9184;54.390;18.620;2022-08-01T00:09:51;9.98;;;5.88;;
18114;SDS011;9184;54.390;18.620;2022-08-01T00:10:22;11.70;;;6.03;;
18114;SDS011;9184;54.390;18.620;2022-08-01T00:10:52;8.88;;;5.72;;
18114;SDS011;9184;54.390;18.620;2022-08-01T00:11:23;12.63;;;6.53;;
18114;SDS011;9184;54.390;18.620;2022-08-01T00:11:54;7.90;;;5.63;;
18114;SDS011;9184;54.390;18.620;2022-08-01T00:12:25;10.20;;;6.30;;
18114;SDS011;9184;54.390;18.620;2022-08-01T00:12:55;8.27;;;5.88;;
18114;SDS011;9184;54.390;18.620;2022-08-01T00:13:26;8.23;;;6.30;;
18114;SDS011;9184;54.390;18.620;2022-08-01T00:13:57;10.75;;;7.38;;
18114;SDS011;9184;54.390;18.620;2022-08-01T00:14:27;10.65;;;6.78;;
18114;SDS011;9184;54.390;18.620;2022-08-01T00:14:59;9.80;;;7.03;;
18114;SDS011;9184;54.390;18.620;2022-08-01T00:15:29;11.90;;;6.80;;
18114;SDS011;9184;54.390;18.620;2022-08-01T00:16:01;10.68;;;6.93;;
18114;SDS011;9184;54.390;18.620;2022-08-01T00:16:31;14.55;;;7.88;;
18114;SDS011;9184;54.390;18.620;2022-08-01T00:17:02;13.48;;;7.05;;
18114;SDS011;9184;54.390;18.620;2022-08-01T00:17:33;12.55;;;7.70;;
18114;SDS011;9184;54.390;18.620;2022-08-01T00:18:03;13.27;;;8.13;;
18114;SDS011;9184;54.390;18.620;2022-08-01T00:18:35;14.75;;;7.13;;
18114;SDS011;9184;54.390;18.620;2022-08-01T00:19:05;14.40;;;8.70;;
18114;SDS011;9184;54.390;18.620;2022-08-01T00:19:36;16.52;;;8.13;;
18114;SDS011;9184;54.390;18.620;2022-08-01T00:20:08;13.50;;;9.25;;
18114;SDS011;9184;54.390;18.620;2022-08-01T00:20:39;15.50;;;8.07;;
18114;SDS011;9184;54.390;18.620;2022-08-01T00:21:10;15.63;;;8.25;;
18114;SDS011;9184;54.390;18.620;2022-08-01T00:21:41;12.30;;;7.55;;
18114;SDS011;9184;54.390;18.620;2022-08-01T00:22:13;11.10;;;7.63;;
18114;SDS011;9184;54.390;18.620;2022-08-01T00:22:44;13.35;;;7.90;;
18114;SDS011;9184;54.390;18.620;2022-08-01T00:23:14;12.55;;;7.28;;
18114;SDS011;9184;54.390;18.620;2022-08-01T00:23:45;11.85;;;7.25;;
18114;SDS011;9184;54.390;18.620;2022-08-01T00:24:16;12.07;;;7.57;;
18114;SDS011;9184;54.390;18.620;2022-08-01T00:24:47;9.10;;;7.18;;
18114;SDS011;9184;54.390;18.620;2022-08-01T00:25:17;11.38;;;6.68;;
18114;SDS011;9184;54.390;18.620;2022-08-01T00:25:48;10.07;;;7.53;;
18114;SDS011;9184;54.390;18.620;2022-08-01T00:26:19;10.07;;;7.18;;
18114;SDS011;9184;54.390;18.620;2022-08-01T00:26:49;8.82;;;6.05;;
18114;SDS011;9184;54.390;18.620;2022-08-01T00:27:21;9.77;;;6.35;;
18114;SDS011;9184;54.390;18.620;2022-08-01T00:27:51;9.60;;;6.68;;
18114;SDS011;9184;54.390;18.620;2022-08-01T00:28:23;12.43;;;6.70;;
18114;SDS011;9184;54.390;18.620;2022-08-01T00:28:54;9.40;;;6.47;;
18114;SDS011;9184;54.390;18.620;2022-08-01T00:29:25;10.52;;;6.53;;
18114;SDS011;9184;54.390;18.620;2022-08-01T00:29:56;8.75;;;5.82;;
18114;SDS011;9184;54.390;18.620;2022-08-01T00:30:27;11.95;;;6.60;;
18114;SDS011;9184;54.390;18.620;2022-08-01T00:30:57;8.70;;;6.00;;
18114;SDS011;9184;54.390;18.620;2022-08-01T00:31:28;8.63;;;6.38;;
18114;SDS011;9184;54.390;18.620;2022-08-01T00:31:59;7.28;;;5.82;;
18114;SDS011;9184;54.390;18.620;2022-08-01T00:32:30;14.80;;;6.43;;
18114;SDS011;9184;54.390;18.620;2022-08-01T00:33:01;9.00;;;5.63;;
18114;SDS011;9184;54.390;18.620;2022-08-01T00:33:32;9.82;;;6.28;;
18114;SDS011;9184;54.390;18.620;2022-08-01T00:34:02;10.23;;;6.20;;
18114;SDS011;9184;54.390;18.620;2022-08-01T00:34:34;10.30;;;6.03;;
18114;SDS011;9184;54.390;18.620;2022-08-01T00:35:05;8.75;;;5.80;;
18114;SDS011;9184;54.390;18.620;2022-08-01T00:35:36;9.68;;;6.22;;
18114;SDS011;9184;54.390;18.620;2022-08-01T00:36:07;8.32;;;5.65;;
18114;SDS011;9184;54.390;18.620;2022-08-01T00:36:38;6.53;;;5.68;;
18114;SDS011;9184;54.390;18.620;2022-08-01T00:37:12;8.52;;;5.90;;
18114;SDS011;9184;54.390;18.620;2022-08-01T00:37:44;7.50;;;5.78;;
18114;SDS011;9184;54.390;18.620;2022-08-01T00:38:16;7.93;;;5.82;;
18114;SDS011;9184;54.390;18.620;2022-08-01T00:38:46;7.20;;;5.82;;
18114;SDS011;9184;54.390;18.620;2022-08-01T00:39:18;8.77;;;6.32;;
18114;SDS011;9184;54.390;18.620;2022-08-01T00:39:48;8.40;;;6.13;;
18114;SDS011;9184;54.390;18.620;2022-08-01T00:40:19;8.00;;;6.25;;
18114;SDS011;9184;54.390;18.620;2022-08-01T00:40:50;8.60;;;6.13;;
18114;SDS011;9184;54.390;18.620;2022-08-01T00:41:20;10.75;;;6.18;;
18114;SDS011;9184;54.390;18.620;2022-08-01T00:41:52;11.70;;;6.85;;
18114;SDS011;9184;54.390;18.620;2022-08-01T00:42:22;8.80;;;6.03;;
18114;SDS011;9184;54.390;18.620;2022-08-01T00:42:53;11.13;;;6.65;;
18114;SDS011;9184;54.390;18.620;2022-08-01T00:43:24;9.40;;;6.38;;
18114;SDS011;9184;54.390;18.620;2022-08-01T00:43:55;8.93;;;6.20;;
18114;SDS011;9184;54.390;18.620;2022-08-01T00:44:26;8.35;;;6.97;;
18114;SDS011;9184;54.390;18.620;2022-08-01T00:44:56;9.65;;;6.55;;
18114;SDS011;9184;54.390;18.620;2022-08-01T00:45:28;10.15;;;6.90;;
18114;SDS011;9184;54.390;18.620;2022-08-01T00:45:58;10.13;;;7.05;;
18114;SDS011;9184;54.390;18.620;2022-08-01T00:46:29;8.57;;;6.72;;
18114;SDS011;9184;54.390;18.620;2022-08-01T00:47:00;12.55;;;8.57;;
18114;SDS011;9184;54.390;18.620;2022-08-01T00:47:31;14.07;;;7.07;;
18114;SDS011;9184;54.390;18.620;2022-08-01T00:48:01;12.90;;;8.60;;
18114;SDS011;9184;54.390;18.620;2022-08-01T00:48:33;13.13;;;8.90;;
18114;SDS011;9184;54.390;18.620;2022-08-01T00:49:04;9.43;;;6.43;;
18114;SDS011;9184;54.390;18.620;2022-08-01T00:49:35;12.45;;;7.18;;
18114;SDS011;9184;54.390;18.620;2022-08-01T00:50:06;11.88;;;8.02;;
18114;SDS011;9184;54.390;18.620;2022-08-01T00:50:37;13.35;;;9.00;;
18114;SDS011;9184;54.390;18.620;2022-08-01T00:51:09;8.93;;;7.35;;
18114;SDS011;9184;54.390;18.620;2022-08-01T00:51:40;9.23;;;7.82;;
18114;SDS011;9184;54.390;18.620;2022-08-01T00:52:10;9.65;;;7.07;;
18114;SDS011;9184;54.390;18.620;2022-08-01T00:52:43;7.38;;;6.50;;
18114;SDS011;9184;54.390;18.620;2022-08-01T00:53:14;7.57;;;6.07;;
18114;SDS011;9184;54.390;18.620;2022-08-01T00:53:44;12.27;;;6.72;;
18114;SDS011;9184;54.390;18.620;2022-08-01T00:54:16;13.07;;;6.85;;
18114;SDS011;9184;54.390;18.620;2022-08-01T00:54:46;12.35;;;6.85;;
18114;SDS011;9184;54.390;18.620;2022-08-01T00:55:16;7.82;;;7.03;;
18114;SDS011;9184;54.390;18.620;2022-08-01T00:55:49;10.10;;;6.70;;
18114;SDS011;9184;54.390;18.620;2022-08-01T00:56:23;11.07;;;6.43;;
18114;SDS011;9184;54.390;18.620;2022-08-01T00:56:54;9.05;;;6.75;;
18114;SDS011;9184;54.390;18.620;2022-08-01T00:57:25;10.90;;;7.20;;
18114;SDS011;9184;54.390;18.620;2022-08-01T00:57:56;9.98;;;6.45;;
18114;SDS011;9184;54.390;18.620;2022-08-01T00:58:26;8.80;;;6.90;;
18114;SDS011;9184;54.390;18.620;2022-08-01T00:58:59;8.05;;;6.63;;
18114;SDS011;9184;54.390;18.620;2022-08-01T00:59:29;11.02;;;7.15;;
18114;SDS011;9184;54.390;18.620;2022-08-01T01:00:00;10.25;;;6.35;;
18114;SDS011;9184;54.390;18.620;2022-08-01T01:00:32;11.93;;;6.70;;
18114;SDS011;9184;54.390;18.620;2022-08-01T01:01:03;8.82;;;6.13;;
18114;SDS011;9184;54.390;18.620;2022-08-01T01:01:33;8.40;;;6.60;;
18114;SDS011;9184;54.390;18.620;2022-08-01T01:02:04;12.10;;;7.35;;
18114;SDS011;9184;54.390;18.620;2022-08-01T01:02:35;9.77;;;6.25;;
18114;SDS011;9184;54.390;18.620;2022-08-01T01:03:06;10.93;;;6.68;;
18114;SDS011;9184;54.390;18.620;2022-08-01T01:03:36;14.20;;;6.60;;
18114;SDS011;9184;54.390;18.620;2022-08-01T01:04:08;9.13;;;6.80;;
18114;SDS011;9184;54.390;18.620;2022-08-01T01:04:38;8.60;;;6.13;;
18114;SDS011;9184;54.390;18.620;2022-08-01T01:05:08;9.30;;;7.38;;
18114;SDS011;9184;54.390;18.620;2022-08-01T01:05:40;9.88;;;6.88;;
18114;SDS011;9184;54.390;18.620;2022-08-01T01:06:14;12.07;;;7.32;;
18114;SDS011;9184;54.390;18.620;2022-08-01T01:06:47;9.00;;;6.45;;
18114;SDS011;9184;54.390;18.620;2022-08-01T01:07:19;9.82;;;7.47;;
18114;SDS011;9184;54.390;18.620;2022-08-01T01:07:56;9.80;;;7.18;;
18114;SDS011;9184;54.390;18.620;2022-08-01T01:08:31;9.20;;;6.70;;
18114;SDS011;9184;54.390;18.620;2022-08-01T01:09:05;8.88;;;6.40;;
18114;SDS011;9184;54.390;18.620;2022-08-01T01:09:42;8.10;;;6.63;;
18114;SDS011;9184;54.390;18.620;2022-08-01T01:10:15;11.32;;;6.63;;
18114;SDS011;9184;54.390;18.620;2022-08-01T01:10:48;9.43;;;6.45;;
18114;SDS011;9184;54.390;18.620;2022-08-01T01:11:25;8.32;;;6.15;;
18114;SDS011;9184;54.390;18.620;2022-08-01T01:11:57;6.93;;;6.18;;
18114;SDS011;9184;54.390;18.620;2022-08-01T01:12:31;10.68;;;7.00;;
18114;SDS011;9184;54.390;18.620;2022-08-01T01:13:06;14.45;;;7.60;;
18114;SDS011;9184;54.390;18.620;2022-08-01T01:13:38;11.35;;;7.35;;
18114;SDS011;9184;54.390;18.620;2022-08-01T01:14:09;10.43;;;6.68;;
18114;SDS011;9184;54.390;18.620;2022-08-01T01:14:42;9.40;;;7.03;;
18114;SDS011;9184;54.390;18.620;2022-08-01T01:15:17;7.97;;;6.78;;
18114;SDS011;9184;54.390;18.620;2022-08-01T01:15:49;10.45;;;7.30;;
18114;SDS011;9184;54.390;18.620;2022-08-01T01:16:21;11.90;;;7.30;;
18114;SDS011;9184;54.390;18.620;2022-08-01T01:16:53;13.68;;;6.88;;
18114;SDS011;9184;54.390;18.620;2022-08-01T01:17:25;10.77;;;7.90;;
18114;SDS011;9184;54.390;18.620;2022-08-01T01:17:58;10.10;;;7.40;;
18114;SDS011;9184;54.390;18.620;2022-08-01T01:18:31;9.85;;;7.75;;
18114;SDS011;9184;54.390;18.620;2022-08-01T01:19:03;9.55;;;6.80;;
18114;SDS011;9184;54.390;18.620;2022-08-01T01:19:36;10.95;;;7.35;;
18114;SDS011;9184;54.390;18.620;2022-08-01T01:20:10;12.27;;;7.72;;
18114;SDS011;9184;54.390;18.620;2022-08-01T01:20:43;7.63;;;6.82;;
18114;SDS011;9184;54.390;18.620;2022-08-01T01:21:25;8.02;;;6.20;;
18114;SDS011;9184;54.390;18.620;2022-08-01T01:22:08;9.95;;;6.97;;
18114;SDS011;9184;54.390;18.620;2022-08-01T01:22:46;10.75;;;7.32;;
18114;SDS011;9184;54.390;18.620;2022-08-01T01:23:31;14.85;;;7.68;;
18114;SDS011;9184;54.390;18.620;2022-08-01T01:24:10;8.60;;;6.85;;
18114;SDS011;9184;54.390;18.620;2022-08-01T01:24:45;9.70;;;6.55;;
18114;SDS011;9184;54.390;18.620;2022-08-01T01:26:15;8.10;;;6.38;;
18114;SDS011;9184;54.390;18.620;2022-08-01T01:26:50;9.57;;;6.55;;
18114;SDS011;9184;54.390;18.620;2022-08-01T01:27:24;10.23;;;6.38;;
18114;SDS011;9184;54.390;18.620;2022-08-01T01:28:02;8.88;;;7.72;;
18114;SDS011;9184;54.390;18.620;2022-08-01T01:28:40;8.05;;;7.03;;
18114;SDS011;9184;54.390;18.620;2022-08-01T01:29:16;16.45;;;7.88;;
18114;SDS011;9184;54.390;18.620;2022-08-01T01:29:48;14.13;;;7.60;;
18114;SDS011;9184;54.390;18.620;2022-08-01T01:30:21;12.48;;;7.60;;
18114;SDS011;9184;54.390;18.620;2022-08-01T01:30:53;13.07;;;8.23;;
18114;SDS011;9184;54.390;18.620;2022-08-01T01:31:25;10.45;;;7.65;;
18114;SDS011;9184;54.390;18.620;2022-08-01T01:31:57;10.50;;;7.30;;
18114;SDS011;9184;54.390;18.620;2022-08-01T01:32:30;10.32;;;7.22;;
18114;SDS011;9184;54.390;18.620;2022-08-01T01:33:05;9.25;;;7.15;;
18114;SDS011;9184;54.390;18.620;2022-08-01T01:33:37;12.55;;;7.68;;
18114;SDS011;9184;54.390;18.620;2022-08-01T01:34:09;10.25;;;7.38;;
18114;SDS011;9184;54.390;18.620;2022-08-01T01:34:42;10.18;;;6.65;;
18114;SDS011;9184;54.390;18.620;2022-08-01T01:35:15;9.40;;;7.30;;
18114;SDS011;9184;54.390;18.620;2022-08-01T01:35:48;9.05;;;8.23;;
18114;SDS011;9184;54.390;18.620;2022-08-01T01:36:21;9.75;;;7.13;;
18114;SDS011;9184;54.390;18.620;2022-08-01T01:36:56;9.85;;;7.05;;
18114;SDS011;9184;54.390;18.620;2022-08-01T01:37:28;11.50;;;7.50;;
18114;SDS011;9184;54.390;18.620;2022-08-01T01:38:00;8.77;;;7.03;;
18114;SDS011;9184;54.390;18.620;2022-08-01T01:38:33;8.10;;;6.53;;
18114;SDS011;9184;54.390;18.620;2022-08-01T01:39:06;9.77;;;7.13;;
18114;SDS011;9184;54.390;18.620;2022-08-01T01:39:37;7.80;;;7.00;;
18114;SDS011;9184;54.390;18.620;2022-08-01T01:40:10;10.18;;;8.35;;
18114;SDS011;9184;54.390;18.620;2022-08-01T01:40:45;8.57;;;7.68;;
18114;SDS011;9184;54.390;18.620;2022-08-01T01:41:17;10.32;;;7.00;;
18114;SDS011;9184;54.390;18.620;2022-08-01T01:41:48;8.20;;;7.22;;
18114;SDS011;9184;54.390;18.620;2022-08-01T01:42:19;11.65;;;7.60;;
18114;SDS011;9184;54.390;18.620;2022-08-01T01:42:50;12.65;;;7.80;;
18114;SDS011;9184;54.390;18.620;2022-08-01T01:43:22;8.45;;;7.55;;
18114;SDS011;9184;54.390;18.620;2022-08-01T01:43:53;13.90;;;7.30;;
18114;SDS011;9184;54.390;18.620;2022-08-01T01:44:26;11.02;;;7.78;;
18114;SDS011;9184;54.390;18.620;2022-08-01T01:44:58;15.40;;;7.07;;
18114;SDS011;9184;54.390;18.620;2022-08-01T01:45:28;11.60;;;7.70;;
18114;SDS011;9184;54.390;18.620;2022-08-01T01:46:00;10.45;;;7.22;;
18114;SDS011;9184;54.390;18.620;2022-08-01T01:46:31;9.20;;;7.07;;
18114;SDS011;9184;54.390;18.620;2022-08-01T01:47:02;9.55;;;7.10;;
18114;SDS011;9184;54.390;18.620;2022-08-01T01:47:33;13.65;;;7.53;;
18114;SDS011;9184;54.390;18.620;2022-08-01T01:48:05;10.68;;;7.05;;
18114;SDS011;9184;54.390;18.620;2022-08-01T01:48:36;10.30;;;7.20;;
18114;SDS011;9184;54.390;18.620;2022-08-01T01:49:07;10.13;;;7.30;;
18114;SDS011;9184;54.390;18.620;2022-08-01T01:49:41;8.63;;;6.78;;
18114;SDS011;9184;54.390;18.620;2022-08-01T01:50:13;10.73;;;7.03;;
18114;SDS011;9184;54.390;18.620;2022-08-01T01:50:45;13.20;;;7.60;;
18114;SDS011;9184;54.390;18.620;2022-08-01T01:51:16;19.65;;;7.55;;
18114;SDS011;9184;54.390;18.620;2022-08-01T01:51:48;9.98;;;7.38;;
18114;SDS011;9184;54.390;18.620;2022-08-01T01:52:18;11.18;;;7.53;;
18114;SDS011;9184;54.390;18.620;2022-08-01T01:52:51;9.93;;;7.07;;
18114;SDS011;9184;54.390;18.620;2022-08-01T01:53:22;9.55;;;6.70;;
18114;SDS011;9184;54.390;18.620;2022-08-01T01:53:53;10.63;;;7.38;;
18114;SDS011;9184;54.390;18.620;2022-08-01T01:54:28;8.57;;;7.60;;
18114;SDS011;9184;54.390;18.620;2022-08-01T01:54:58;9.43;;;7.32;;
18114;SDS011;9184;54.390;18.620;2022-08-01T01:55:31;11.55;;;7.22;;
18114;SDS011;9184;54.390;18.620;2022-08-01T01:56:04;10.18;;;7.40;;
18114;SDS011;9184;54.390;18.620;2022-08-01T01:56:34;9.30;;;6.93;;
18114;SDS011;9184;54.390;18.620;2022-08-01T01:57:05;11.55;;;7.15;;
18114;SDS011;9184;54.390;18.620;2022-08-01T01:57:38;12.95;;;7.25;;
18114;SDS011;9184;54.390;18.620;2022-08-01T01:58:09;17.42;;;7.53;;
18114;SDS011;9184;54.390;18.620;2022-08-01T01:58:40;11.77;;;7.38;;
18114;SDS011;9184;54.390;18.620;2022-08-01T01:59:13;10.50;;;7.88;;
18114;SDS011;9184;54.390;18.620;2022-08-01T01:59:46;9.80;;;6.90;;
18114;SDS011;9184;54.390;18.620;2022-08-01T02:00:16;9.15;;;7.00;;
18114;SDS011;9184;54.390;18.620;2022-08-01T02:00:49;9.75;;;7.20;;
18114;SDS011;9184;54.390;18.620;2022-08-01T02:01:20;9.38;;;7.13;;
18114;SDS011;9184;54.390;18.620;2022-08-01T02:01:51;10.95;;;7.20;;
18114;SDS011;9184;54.390;18.620;2022-08-01T02:02:23;9.25;;;6.63;;
18114;SDS011;9184;54.390;18.620;2022-08-01T02:02:54;11.38;;;6.60;;
18114;SDS011;9184;54.390;18.620;2022-08-01T02:03:26;10.75;;;7.07;;
18114;SDS011;9184;54.390;18.620;2022-08-01T02:03:57;9.27;;;7.15;;
18114;SDS011;9184;54.390;18.620;2022-08-01T02:04:29;8.40;;;6.70;;
18114;SDS011;9184;54.390;18.620;2022-08-01T02:05:00;10.82;;;7.07;;
18114;SDS011;9184;54.390;18.620;2022-08-01T02:05:31;9.90;;;6.00;;
18114;SDS011;9184;54.390;18.620;2022-08-01T02:06:05;8.88;;;7.50;;
18114;SDS011;9184;54.390;18.620;2022-08-01T02:06:36;13.32;;;7.50;;
18114;SDS011;9184;54.390;18.620;2022-08-01T02:07:08;11.07;;;7.00;;
18114;SDS011;9184;54.390;18.620;2022-08-01T02:07:40;10.32;;;7.72;;
18114;SDS011;9184;54.390;18.620;2022-08-01T02:08:11;10.15;;;7.25;;
18114;SDS011;9184;54.390;18.620;2022-08-01T02:08:44;11.57;;;7.53;;
18114;SDS011;9184;54.390;18.620;2022-08-01T02:09:15;9.48;;;7.55;;
18114;SDS011;9184;54.390;18.620;2022-08-01T02:09:48;8.52;;;6.82;;
18114;SDS011;9184;54.390;18.620;2022-08-01T02:10:19;12.18;;;7.40;;
18114;SDS011;9184;54.390;18.620;2022-08-01T02:10:50;13.93;;;7.80;;
18114;SDS011;9184;54.390;18.620;2022-08-01T02:11:35;12.15;;;7.70;;
18114;SDS011;9184;54.390;18.620;2022-08-01T02:12:07;11.05;;;7.38;;
18114;SDS011;9184;54.390;18.620;2022-08-01T02:12:40;11.02;;;7.13;;
18114;SDS011;9184;54.390;18.620;2022-08-01T02:13:11;13.38;;;6.75;;
18114;SDS011;9184;54.390;18.620;2022-08-01T02:13:43;10.82;;;7.25;;
18114;SDS011;9184;54.390;18.620;2022-08-01T02:14:15;11.30;;;7.85;;
18114;SDS011;9184;54.390;18.620;2022-08-01T02:14:48;11.55;;;7.50;;
18114;SDS011;9184;54.390;18.620;2022-08-01T02:15:20;9.93;;;7.70;;
18114;SDS011;9184;54.390;18.620;2022-08-01T02:15:52;8.77;;;7.75;;
18114;SDS011;9184;54.390;18.620;2022-08-01T02:16:24;11.80;;;7.45;;
18114;SDS011;9184;54.390;18.620;2022-08-01T02:16:56;9.98;;;7.63;;
18114;SDS011;9184;54.390;18.620;2022-08-01T02:17:27;12.45;;;7.40;;
18114;SDS011;9184;54.390;18.620;2022-08-01T02:18:00;11.07;;;7.80;;
18114;SDS011;9184;54.390;18.620;2022-08-01T02:18:31;10.38;;;7.45;;
18114;SDS011;9184;54.390;18.620;2022-08-01T02:19:02;12.48;;;7.53;;
18114;SDS011;9184;54.390;18.620;2022-08-01T02:19:33;11.90;;;8.23;;
18114;SDS011;9184;54.390;18.620;2022-08-01T02:20:04;14.63;;;8.45;;
18114;SDS011;9184;54.390;18.620;2022-08-01T02:20:34;11.63;;;7.72;;
18114;SDS011;9184;54.390;18.620;2022-08-01T02:21:08;12.25;;;7.78;;
18114;SDS011;9184;54.390;18.620;2022-08-01T02:21:40;7.88;;;7.07;;
18114;SDS011;9184;54.390;18.620;2022-08-01T02:22:14;11.00;;;8.10;;
18114;SDS011;9184;54.390;18.620;2022-08-01T02:22:48;9.45;;;7.63;;
18114;SDS011;9184;54.390;18.620;2022-08-01T02:23:21;10.48;;;8.10;;
18114;SDS011;9184;54.390;18.620;2022-08-01T02:23:53;10.90;;;8.35;;
18114;SDS011;9184;54.390;18.620;2022-08-01T02:24:27;11.77;;;7.80;;
18114;SDS011;9184;54.390;18.620;2022-08-01T02:24:59;10.57;;;7.60;;
18114;SDS011;9184;54.390;18.620;2022-08-01T02:25:33;10.10;;;8.23;;
18114;SDS011;9184;54.390;18.620;2022-08-01T02:26:07;10.32;;;7.57;;
18114;SDS011;9184;54.390;18.620;2022-08-01T02:26:39;12.20;;;7.72;;
18114;SDS011;9184;54.390;18.620;2022-08-01T02:27:12;13.45;;;8.40;;
18114;SDS011;9184;54.390;18.620;2022-08-01T02:27:45;12.35;;;7.70;;
18114;SDS011;9184;54.390;18.620;2022-08-01T02:28:17;11.25;;;7.70;;
18114;SDS011;9184;54.390;18.620;2022-08-01T02:28:54;9.32;;;7.13;;
18114;SDS011;9184;54.390;18.620;2022-08-01T02:29:27;12.27;;;8.25;;
18114;SDS011;9184;54.390;18.620;2022-08-01T02:30:00;8.43;;;6.97;;
18114;SDS011;9184;54.390;18.620;2022-08-01T02:30:32;9.38;;;7.47;;
18114;SDS011;9184;54.390;18.620;2022-08-01T02:31:04;13.07;;;7.78;;
18114;SDS011;9184;54.390;18.620;2022-08-01T02:31:38;12.02;;;8.20;;
18114;SDS011;9184;54.390;18.620;2022-08-01T02:32:11;9.35;;;6.78;;
18114;SDS011;9184;54.390;18.620;2022-08-01T02:32:42;9.75;;;7.18;;
18114;SDS011;9184;54.390;18.620;2022-08-01T02:33:15;12.55;;;8.23;;
18114;SDS011;9184;54.390;18.620;2022-08-01T02:33:50;7.70;;;6.90;;
18114;SDS011;9184;54.390;18.620;2022-08-01T02:34:22;12.77;;;7.78;;
18114;SDS011;9184;54.390;18.620;2022-08-01T02:34:55;11.43;;;7.55;;
18114;SDS011;9184;54.390;18.620;2022-08-01T02:35:27;11.20;;;7.03;;
18114;SDS011;9184;54.390;18.620;2022-08-01T02:35:59;9.55;;;7.88;;
18114;SDS011;9184;54.390;18.620;2022-08-01T02:36:32;10.90;;;7.43;;
18114;SDS011;9184;54.390;18.620;2022-08-01T02:37:03;9.50;;;7.40;;
18114;SDS011;9184;54.390;18.620;2022-08-01T02:37:36;7.97;;;6.82;;
18114;SDS011;9184;54.390;18.620;2022-08-01T02:38:09;7.95;;;6.90;;
18114;SDS011;9184;54.390;18.620;2022-08-01T02:38:40;10.75;;;7.25;;
18114;SDS011;9184;54.390;18.620;2022-08-01T02:39:13;10.55;;;7.22;;
18114;SDS011;9184;54.390;18.620;2022-08-01T02:39:43;11.40;;;8.05;;
18114;SDS011;9184;54.390;18.620;2022-08-01T02:40:20;11.38;;;8.07;;
18114;SDS011;9184;54.390;18.620;2022-08-01T02:40:51;7.95;;;6.60;;
18114;SDS011;9184;54.390;18.620;2022-08-01T02:41:23;10.57;;;7.53;;
18114;SDS011;9184;54.390;18.620;2022-08-01T02:41:57;8.02;;;7.05;;
18114;SDS011;9184;54.390;18.620;2022-08-01T02:42:28;10.93;;;7.43;;
18114;SDS011;9184;54.390;18.620;2022-08-01T02:43:00;7.68;;;6.57;;
18114;SDS011;9184;54.390;18.620;2022-08-01T02:43:32;10.95;;;6.97;;
18114;SDS011;9184;54.390;18.620;2022-08-01T02:44:04;12.75;;;7.22;;
18114;SDS011;9184;54.390;18.620;2022-08-01T02:44:37;12.57;;;7.00;;
18114;SDS011;9184;54.390;18.620;2022-08-01T02:45:10;11.15;;;7.22;;
18114;SDS011;9184;54.390;18.620;2022-08-01T02:45:43;12.35;;;6.72;;
18114;SDS011;9184;54.390;18.620;2022-08-01T02:46:16;11.85;;;7.47;;
18114;SDS011;9184;54.390;18.620;2022-08-01T02:46:49;11.30;;;7.78;;
18114;SDS011;9184;54.390;18.620;2022-08-01T02:47:20;11.45;;;7.30;;
18114;SDS011;9184;54.390;18.620;2022-08-01T02:47:54;10.95;;;8.07;;
18114;SDS011;9184;54.390;18.620;2022-08-01T02:48:25;9.48;;;7.93;;
18114;SDS011;9184;54.390;18.620;2022-08-01T02:48:58;8.02;;;7.20;;
18114;SDS011;9184;54.390;18.620;2022-08-01T02:49:31;12.45;;;8.32;;
18114;SDS011;9184;54.390;18.620;2022-08-01T02:50:03;9.55;;;7.43;;
18114;SDS011;9184;54.390;18.620;2022-08-01T02:50:34;10.48;;;7.68;;
18114;SDS011;9184;54.390;18.620;2022-08-01T02:51:06;13.13;;;7.30;;
18114;SDS011;9184;54.390;18.620;2022-08-01T02:51:38;10.85;;;7.20;;
18114;SDS011;9184;54.390;18.620;2022-08-01T02:52:11;10.40;;;7.32;;
18114;SDS011;9184;54.390;18.620;2022-08-01T02:52:43;13.32;;;7.68;;
18114;SDS011;9184;54.390;18.620;2022-08-01T02:53:13;10.88;;;7.25;;
18114;SDS011;9184;54.390;18.620;2022-08-01T02:53:44;9.18;;;7.50;;
18114;SDS011;9184;54.390;18.620;2022-08-01T02:54:17;10.00;;;7.03;;
18114;SDS011;9184;54.390;18.620;2022-08-01T02:54:49;10.23;;;7.57;;
18114;SDS011;9184;54.390;18.620;2022-08-01T02:55:20;12.48;;;7.65;;
18114;SDS011;9184;54.390;18.620;2022-08-01T02:55:52;8.57;;;7.68;;
18114;SDS011;9184;54.390;18.620;2022-08-01T02:56:23;9.15;;;7.32;;
18114;SDS011;9184;54.390;18.620;2022-08-01T02:57:04;8.68;;;7.43;;
18114;SDS011;9184;54.390;18.620;2022-08-01T02:57:37;9.77;;;7.35;;
18114;SDS011;9184;54.390;18.620;2022-08-01T02:58:08;11.30;;;7.78;;
18114;SDS011;9184;54.390;18.620;2022-08-01T02:58:39;9.65;;;7.70;;
18114;SDS011;9184;54.390;18.620;2022-08-01T02:59:12;10.35;;;7.80;;
18114;SDS011;9184;54.390;18.620;2022-08-01T02:59:44;9.57;;;8.15;;
18114;SDS011;9184;54.390;18.620;2022-08-01T03:00:18;9.32;;;7.53;;
18114;SDS011;9184;54.390;18.620;2022-08-01T03:00:49;10.65;;;8.55;;
18114;SDS011;9184;54.390;18.620;2022-08-01T03:01:19;11.30;;;7.68;;
18114;SDS011;9184;54.390;18.620;2022-08-01T03:01:51;9.88;;;7.85;;
18114;SDS011;9184;54.390;18.620;2022-08-01T03:02:23;9.73;;;7.72;;
18114;SDS011;9184;54.390;18.620;2022-08-01T03:02:54;10.15;;;8.10;;
18114;SDS011;9184;54.390;18.620;2022-08-01T03:03:26;9.93;;;7.95;;
18114;SDS011;9184;54.390;18.620;2022-08-01T03:03:57;8.77;;;7.65;;
18114;SDS011;9184;54.390;18.620;2022-08-01T03:04:27;12.50;;;8.65;;
18114;SDS011;9184;54.390;18.620;2022-08-01T03:04:59;11.18;;;7.80;;
18114;SDS011;9184;54.390;18.620;2022-08-01T03:05:31;10.65;;;7.88;;
18114;SDS011;9184;54.390;18.620;2022-08-01T03:06:02;15.57;;;8.57;;
18114;SDS011;9184;54.390;18.620;2022-08-01T03:06:33;10.18;;;8.27;;
18114;SDS011;9184;54.390;18.620;2022-08-01T03:07:06;14.20;;;9.25;;
18114;SDS011;9184;54.390;18.620;2022-08-01T03:07:37;44.88;;;10.85;;
18114;SDS011;9184;54.390;18.620;2022-08-01T03:08:10;18.55;;;9.70;;
18114;SDS011;9184;54.390;18.620;2022-08-01T03:08:41;14.30;;;8.82;;
18114;SDS011;9184;54.390;18.620;2022-08-01T03:09:12;12.00;;;8.57;;
18114;SDS011;9184;54.390;18.620;2022-08-01T03:09:44;11.25;;;8.68;;
18114;SDS011;9184;54.390;18.620;2022-08-01T03:10:15;11.85;;;8.60;;
18114;SDS011;9184;54.390;18.620;2022-08-01T03:10:46;9.82;;;8.43;;
18114;SDS011;9184;54.390;18.620;2022-08-01T03:11:18;11.00;;;8.68;;
18114;SDS011;9184;54.390;18.620;2022-08-01T03:11:48;9.38;;;8.30;;
18114;SDS011;9184;54.390;18.620;2022-08-01T03:12:19;12.35;;;8.57;;